createdAt,value
2022-08-08T00:02:32.954Z,100.00
2022-08-08T00:05:09.384Z,100.00
2022-08-08T00:07:43.853Z,100.00
2022-08-08T00:10:28.144Z,100.00
2022-08-08T00:14:15.000Z,100.00
2022-08-08T00:16:13.059Z,100.00
2022-08-08T00:18:53.245Z,100.00
2022-08-08T00:21:29.626Z,100.00
2022-08-08T00:24:24.029Z,100.00
2022-08-08T00:27:01.366Z,100.00
2022-08-08T00:29:45.222Z,100.00
2022-08-08T00:32:36.390Z,100.00
2022-08-08T00:35:20.065Z,100.00
2022-08-08T00:38:02.348Z,100.00
2022-08-08T00:41:07.833Z,100.00
2022-08-08T00:43:41.086Z,100.00
2022-08-08T00:46:56.036Z,100.00
2022-08-08T00:49:50.619Z,100.00
2022-08-08T00:53:01.934Z,100.00
2022-08-08T00:56:05.385Z,100.00
2022-08-08T00:59:43.870Z,100.00
2022-08-08T01:03:58.498Z,100.00
2022-08-08T01:06:00.734Z,100.00
2022-08-08T01:08:57.293Z,100.00
2022-08-08T01:11:48.301Z,100.00
2022-08-08T01:14:54.572Z,100.00
2022-08-08T01:18:16.291Z,100.00
2022-08-08T01:21:07.304Z,100.00
2022-08-08T01:24:16.522Z,100.00
2022-08-08T01:27:02.871Z,100.00
2022-08-08T01:30:05.936Z,100.00
2022-08-08T01:32:44.796Z,100.00
2022-08-08T01:35:33.253Z,100.00
2022-08-08T01:38:11.510Z,100.00
2022-08-08T01:41:15.928Z,100.00
2022-08-08T01:44:02.342Z,100.00
2022-08-08T01:46:52.193Z,100.00
2022-08-08T01:49:37.921Z,100.00
2022-08-08T01:52:43.929Z,100.00
2022-08-08T01:56:29.129Z,100.00
2022-08-08T01:58:39.602Z,100.00
2022-08-08T02:02:00.560Z,100.00
2022-08-08T02:05:01.390Z,100.00
2022-08-08T02:08:04.994Z,100.00
2022-08-08T02:11:03.300Z,100.00
2022-08-08T02:13:54.850Z,100.00
2022-08-08T02:16:42.886Z,100.00
2022-08-08T02:19:41.571Z,100.00
2022-08-08T02:22:28.278Z,100.00
2022-08-08T02:25:43.507Z,100.00
2022-08-08T02:28:34.893Z,100.00
2022-08-08T02:31:59.259Z,100.00
2022-08-08T02:34:27.626Z,100.00
2022-08-08T02:37:52.306Z,100.00
2022-08-08T02:41:00.126Z,100.00
2022-08-08T02:44:42.464Z,100.00
2022-08-08T02:46:47.456Z,100.00
2022-08-08T02:49:38.125Z,100.00
2022-08-08T02:52:38.472Z,100.00
2022-08-08T02:55:57.818Z,100.00
2022-08-08T02:59:05.972Z,100.00
2022-08-08T03:02:20.610Z,100.00
2022-08-08T03:05:10.630Z,100.00
2022-08-08T03:08:06.145Z,100.00
2022-08-08T03:10:44.275Z,100.00
2022-08-08T03:15:58.740Z,100.00
2022-08-08T03:17:20.135Z,100.00
2022-08-08T03:20:08.151Z,100.00
2022-08-08T03:22:56.092Z,100.00
2022-08-08T03:25:34.080Z,100.00
2022-08-08T03:28:10.217Z,100.00
2022-08-08T03:30:44.110Z,100.00
2022-08-08T03:33:58.850Z,100.00
2022-08-08T03:36:09.366Z,100.00
2022-08-08T03:38:54.041Z,100.00
2022-08-08T03:42:27.691Z,100.00
2022-08-08T03:44:31.475Z,100.00
2022-08-08T03:47:14.194Z,100.00
2022-08-08T03:49:57.709Z,100.00
2022-08-08T03:52:32.048Z,100.00
2022-08-08T03:55:09.522Z,100.00
2022-08-08T03:58:30.074Z,100.00
2022-08-08T04:00:30.537Z,100.00
2022-08-08T04:03:11.645Z,100.00
2022-08-08T04:05:49.631Z,100.00
2022-08-08T04:08:32.467Z,100.00
2022-08-08T04:11:11.429Z,100.00
2022-08-08T04:14:03.782Z,100.00
2022-08-08T04:16:38.996Z,100.00
2022-08-08T04:19:23.379Z,100.00
2022-08-08T04:21:54.221Z,100.00
2022-08-08T04:24:29.346Z,100.00
2022-08-08T04:26:59.544Z,100.00
2022-08-08T04:29:37.151Z,100.00
2022-08-08T04:32:08.196Z,100.00
2022-08-08T04:34:42.800Z,100.00
2022-08-08T04:37:16.634Z,100.00
2022-08-08T04:40:03.601Z,100.00
2022-08-08T04:42:34.135Z,100.00
2022-08-08T04:45:05.360Z,100.00
2022-08-08T04:47:43.222Z,100.00
2022-08-08T04:50:24.439Z,100.00
2022-08-08T04:52:58.741Z,100.00
2022-08-08T04:55:47.391Z,100.00
2022-08-08T04:58:20.224Z,100.00
2022-08-08T05:00:50.151Z,100.00
2022-08-08T05:04:10.825Z,100.00
2022-08-08T05:06:13.220Z,100.00
2022-08-08T05:08:43.153Z,100.00
2022-08-08T05:11:18.746Z,100.00
2022-08-08T05:13:57.686Z,100.00
2022-08-08T05:16:54.999Z,100.00
2022-08-08T05:20:08.911Z,100.00
2022-08-08T05:22:08.407Z,100.00
2022-08-08T05:24:38.584Z,100.00
2022-08-08T05:27:06.686Z,100.00
2022-08-08T05:29:36.793Z,100.00
2022-08-08T05:32:08.226Z,100.00
2022-08-08T05:34:47.701Z,100.00
2022-08-08T05:37:53.339Z,100.00
2022-08-08T05:40:17.697Z,100.00
2022-08-08T05:42:52.709Z,100.00
2022-08-08T05:45:30.551Z,100.00
2022-08-08T05:48:08.763Z,100.00
2022-08-08T05:50:38.577Z,100.00
2022-08-08T05:53:53.775Z,100.00
2022-08-08T05:56:10.228Z,100.00
2022-08-08T05:58:57.929Z,100.00
2022-08-08T06:01:55.398Z,100.00
2022-08-08T06:04:25.335Z,100.00
2022-08-08T06:07:00.230Z,100.00
2022-08-08T06:10:00.666Z,100.00
2022-08-08T06:12:30.304Z,100.00
2022-08-08T06:15:03.686Z,100.00
2022-08-08T06:17:50.949Z,100.00
2022-08-08T06:20:25.898Z,100.00
2022-08-08T06:22:56.277Z,100.00
2022-08-08T06:26:34.952Z,100.00
2022-08-08T06:28:31.850Z,100.00
2022-08-08T06:31:04.235Z,100.00
2022-08-08T06:34:27.148Z,100.00
2022-08-08T06:36:53.838Z,100.00
2022-08-08T06:39:22.610Z,100.00
2022-08-08T06:41:56.768Z,100.00
2022-08-08T06:44:27.136Z,100.00
2022-08-08T06:46:58.956Z,100.00
2022-08-08T06:49:55.965Z,99.64
2022-08-08T06:52:16.054Z,98.44
2022-08-08T06:54:44.426Z,98.55
2022-08-08T06:57:16.163Z,95.22
2022-08-08T07:00:03.755Z,95.02
2022-08-08T07:02:32.915Z,91.28
2022-08-08T07:05:11.832Z,89.10
2022-08-08T07:07:52.818Z,88.32
2022-08-08T07:10:25.446Z,87.18
2022-08-08T07:13:00.228Z,80.56
2022-08-08T07:16:04.879Z,86.71
2022-08-08T07:19:06.221Z,81.62
2022-08-08T07:22:02.014Z,83.00
2022-08-08T07:24:42.550Z,81.75
2022-08-08T07:27:16.626Z,80.69
2022-08-08T07:30:01.992Z,77.84
2022-08-08T07:32:39.787Z,80.15
2022-08-08T07:35:09.780Z,78.92
2022-08-08T07:38:04.438Z,78.13
2022-08-08T07:40:40.133Z,75.07
2022-08-08T07:43:12.090Z,73.70
2022-08-08T07:46:05.632Z,71.63
2022-08-08T07:48:36.249Z,72.93
2022-08-08T07:51:04.225Z,69.52
2022-08-08T07:54:02.874Z,72.19
2022-08-08T07:56:42.595Z,72.37
2022-08-08T07:59:16.226Z,70.51
2022-08-08T08:02:36.625Z,73.11
2022-08-08T08:04:49.418Z,73.35
2022-08-08T08:07:26.770Z,76.98
2022-08-08T08:10:04.500Z,73.28
2022-08-08T08:12:41.474Z,66.94
2022-08-08T08:15:18.305Z,65.20
2022-08-08T08:17:55.498Z,66.79
2022-08-08T08:20:30.079Z,66.87
2022-08-08T08:22:59.869Z,69.65
2022-08-08T08:25:42.950Z,67.69
2022-08-08T08:28:21.257Z,64.98
2022-08-08T08:30:53.831Z,61.82
2022-08-08T08:33:22.906Z,62.94
2022-08-08T08:36:20.242Z,65.12
2022-08-08T08:38:49.442Z,63.18
2022-08-08T08:41:22.469Z,61.03
2022-08-08T08:43:52.035Z,60.84
2022-08-08T08:46:19.907Z,57.93
2022-08-08T08:48:53.567Z,57.08
2022-08-08T08:51:21.133Z,57.46
2022-08-08T08:53:56.274Z,57.55
2022-08-08T08:56:31.782Z,55.70
2022-08-08T08:59:05.633Z,55.17
2022-08-08T09:01:43.890Z,53.84
2022-08-08T09:04:30.844Z,55.24
2022-08-08T09:07:12.751Z,55.46
2022-08-08T09:09:48.341Z,52.62
2022-08-08T09:12:27.329Z,51.04
2022-08-08T09:14:57.849Z,51.08
2022-08-08T09:17:40.853Z,51.21
2022-08-08T09:21:59.697Z,49.16
2022-08-08T09:22:59.255Z,47.94
2022-08-08T09:25:35.996Z,48.69
2022-08-08T09:28:35.499Z,51.89
2022-08-08T09:31:12.365Z,48.42
2022-08-08T09:34:15.115Z,47.24
2022-08-08T09:36:34.505Z,47.45
2022-08-08T09:39:15.443Z,47.81
2022-08-08T09:42:14.200Z,47.30
2022-08-08T09:44:48.708Z,48.25
2022-08-08T09:47:27.012Z,48.52
2022-08-08T09:50:23.570Z,46.71
2022-08-08T09:52:59.350Z,46.11
2022-08-08T09:56:04.492Z,46.30
2022-08-08T09:58:40.687Z,45.75
2022-08-08T10:01:15.497Z,46.44
2022-08-08T10:04:02.290Z,48.43
2022-08-08T10:06:32.339Z,50.57
2022-08-08T10:08:59.970Z,48.25
2022-08-08T10:12:25.774Z,47.82
2022-08-08T10:14:28.415Z,48.19
2022-08-08T10:17:56.203Z,50.18
2022-08-08T10:19:58.103Z,50.66
2022-08-08T10:22:27.319Z,51.47
2022-08-08T10:25:05.195Z,48.67
2022-08-08T10:27:40.983Z,48.98
2022-08-08T10:30:08.384Z,48.89
2022-08-08T10:32:51.165Z,48.28
2022-08-08T10:36:20.498Z,48.66
2022-08-08T10:38:15.028Z,47.05
2022-08-08T10:40:45.688Z,49.01
2022-08-08T10:43:12.854Z,47.63
2022-08-08T10:45:55.581Z,46.21
2022-08-08T10:48:58.325Z,46.40
2022-08-08T10:51:31.144Z,46.23
2022-08-08T10:54:07.439Z,45.16
2022-08-08T10:56:35.577Z,44.28
2022-08-08T10:59:10.278Z,44.35
2022-08-08T11:01:54.712Z,45.21
2022-08-08T11:04:38.682Z,45.61
2022-08-08T11:07:07.079Z,42.99
2022-08-08T11:09:34.783Z,44.44
2022-08-08T11:12:13.560Z,43.34
2022-08-08T11:14:50.230Z,43.56
2022-08-08T11:17:58.742Z,42.12
2022-08-08T11:20:12.725Z,40.35
2022-08-08T11:22:40.925Z,39.99
2022-08-08T11:25:14.129Z,40.13
2022-08-08T11:27:44.533Z,39.87
2022-08-08T11:30:20.659Z,38.79
2022-08-08T11:32:57.179Z,37.51
2022-08-08T11:35:38.436Z,38.85
2022-08-08T11:38:38.856Z,40.22
2022-08-08T11:40:57.047Z,37.54
2022-08-08T11:43:39.041Z,35.79
2022-08-08T11:46:17.472Z,32.87
2022-08-08T11:48:47.039Z,34.17
2022-08-08T11:51:37.863Z,37.75
2022-08-08T11:54:09.756Z,37.86
2022-08-08T11:56:58.229Z,36.74
2022-08-08T11:59:58.763Z,36.97
2022-08-08T12:02:32.210Z,35.72
2022-08-08T12:05:13.090Z,33.06
2022-08-08T12:07:56.751Z,32.67
2022-08-08T12:10:25.836Z,31.67
2022-08-08T12:13:07.192Z,31.96
2022-08-08T12:15:42.114Z,31.01
2022-08-08T12:18:21.504Z,31.30
2022-08-08T12:20:53.264Z,30.58
2022-08-08T12:23:43.566Z,31.13
2022-08-08T12:26:27.405Z,28.67
2022-08-08T12:29:17.955Z,28.03
2022-08-08T12:31:53.196Z,28.58
2022-08-08T12:34:36.585Z,29.69
2022-08-08T12:37:08.893Z,28.77
2022-08-08T12:40:01.513Z,27.81
2022-08-08T12:42:27.351Z,27.67
2022-08-08T12:45:20.052Z,28.12
2022-08-08T12:48:09.650Z,28.66
2022-08-08T12:50:48.206Z,25.98
2022-08-08T12:53:30.075Z,26.47
2022-08-08T12:56:19.719Z,25.78
2022-08-08T12:58:54.433Z,26.31
2022-08-08T13:01:36.499Z,26.14
2022-08-08T13:04:24.454Z,28.49
2022-08-08T13:06:56.951Z,28.16
2022-08-08T13:10:04.924Z,26.63
2022-08-08T13:12:47.133Z,25.03
2022-08-08T13:15:17.426Z,27.03
2022-08-08T13:18:09.012Z,26.56
2022-08-08T13:20:33.934Z,27.20
2022-08-08T13:23:30.947Z,26.86
2022-08-08T13:25:50.248Z,27.82
2022-08-08T13:28:31.933Z,25.09
2022-08-08T13:31:00.227Z,25.13
2022-08-08T13:33:28.903Z,23.87
2022-08-08T13:36:10.672Z,23.92
2022-08-08T13:38:38.553Z,24.38
2022-08-08T13:41:07.264Z,24.75
2022-08-08T13:43:47.571Z,25.23
2022-08-08T13:46:26.577Z,24.73
2022-08-08T13:50:33.508Z,25.94
2022-08-08T13:51:55.157Z,26.80
2022-08-08T13:54:31.251Z,27.34
2022-08-08T13:57:01.303Z,28.50
2022-08-08T13:59:39.710Z,26.56
2022-08-08T14:02:33.045Z,24.93
2022-08-08T14:05:00.334Z,24.19
2022-08-08T14:07:49.833Z,25.33
2022-08-08T14:10:32.919Z,23.77
2022-08-08T14:13:10.131Z,24.19
2022-08-08T14:16:04.092Z,25.46
2022-08-08T14:18:36.660Z,24.55
2022-08-08T14:21:20.894Z,24.78
2022-08-08T14:24:07.386Z,24.25
2022-08-08T14:26:43.233Z,26.07
2022-08-08T14:29:28.103Z,26.17
2022-08-08T14:32:11.007Z,26.58
2022-08-08T14:34:42.213Z,25.60
2022-08-08T14:37:13.095Z,25.38
2022-08-08T14:39:51.088Z,25.66
2022-08-08T14:42:29.592Z,25.57
2022-08-08T14:45:00.270Z,25.72
2022-08-08T14:47:27.684Z,25.67
2022-08-08T14:50:09.818Z,24.25
2022-08-08T14:52:53.100Z,24.71
2022-08-08T14:55:22.233Z,25.21
2022-08-08T14:58:06.541Z,26.38
2022-08-08T15:00:38.220Z,25.76
2022-08-08T15:03:16.254Z,24.75
2022-08-08T15:05:54.620Z,22.62
2022-08-08T15:08:35.280Z,20.75
2022-08-08T15:11:09.401Z,22.59
2022-08-08T15:14:00.381Z,24.92
2022-08-08T15:16:27.936Z,22.91
2022-08-08T15:18:55.318Z,23.91
2022-08-08T15:21:22.134Z,24.70
2022-08-08T15:23:51.313Z,23.67
2022-08-08T15:26:20.099Z,24.26
2022-08-08T15:28:53.372Z,25.58
2022-08-08T15:31:25.578Z,25.73
2022-08-08T15:34:08.427Z,24.77
2022-08-08T15:36:35.431Z,24.34
2022-08-08T15:39:03.934Z,26.04
2022-08-08T15:41:43.827Z,26.01
2022-08-08T15:44:13.654Z,25.66
2022-08-08T15:46:45.499Z,23.67
2022-08-08T15:49:17.695Z,25.63
2022-08-08T15:51:50.150Z,25.34
2022-08-08T15:54:18.812Z,27.30
2022-08-08T15:57:04.679Z,27.21
2022-08-08T16:00:06.656Z,28.07
2022-08-08T16:02:21.814Z,28.44
2022-08-08T16:04:58.685Z,27.10
2022-08-08T16:07:52.078Z,26.98
2022-08-08T16:13:04.571Z,26.78
2022-08-08T16:13:29.206Z,27.82
2022-08-08T16:15:57.432Z,26.13
2022-08-08T16:18:35.847Z,26.89
2022-08-08T16:21:02.913Z,27.15
2022-08-08T16:23:32.561Z,27.29
2022-08-08T16:26:04.231Z,27.22
2022-08-08T16:28:34.747Z,27.22
2022-08-08T16:31:07.885Z,27.30
2022-08-08T16:33:38.905Z,27.50
2022-08-08T16:36:13.150Z,28.10
2022-08-08T16:38:47.535Z,27.60
2022-08-08T16:41:22.578Z,29.32
2022-08-08T16:43:52.147Z,28.01
2022-08-08T16:46:43.939Z,28.38
2022-08-08T16:49:09.070Z,28.77
2022-08-08T16:55:01.629Z,30.58
2022-08-08T16:55:07.217Z,33.42
2022-08-08T16:58:12.185Z,35.54
2022-08-08T17:00:08.778Z,35.40
2022-08-08T17:02:44.237Z,38.13
2022-08-08T17:05:13.747Z,38.65
2022-08-08T17:07:41.736Z,38.88
2022-08-08T17:10:16.926Z,40.76
2022-08-08T17:12:53.156Z,39.75
2022-08-08T17:15:21.285Z,40.28
2022-08-08T17:18:02.225Z,41.39
2022-08-08T17:20:31.635Z,41.60
2022-08-08T17:23:18.431Z,42.40
2022-08-08T17:25:52.123Z,43.46
2022-08-08T17:28:34.942Z,43.59
2022-08-08T17:31:39.507Z,44.48
2022-08-08T17:37:00.967Z,44.96
2022-08-08T17:40:04.451Z,47.15
2022-08-08T17:42:15.538Z,47.20
2022-08-08T17:44:44.291Z,46.64
2022-08-08T17:47:16.316Z,47.80
2022-08-08T17:49:51.880Z,48.89
2022-08-08T17:52:20.144Z,51.76
2022-08-08T17:54:51.827Z,53.83
2022-08-08T17:57:22.565Z,55.65
2022-08-08T17:59:49.159Z,55.69
2022-08-08T18:02:28.496Z,54.46
2022-08-08T18:04:58.232Z,56.51
2022-08-08T18:08:01.964Z,58.73
2022-08-08T18:10:15.725Z,62.27
2022-08-08T18:12:46.240Z,60.59
2022-08-08T18:18:09.094Z,59.50
2022-08-08T18:20:54.258Z,62.26
2022-08-08T18:23:21.974Z,61.75
2022-08-08T18:25:49.981Z,64.01
2022-08-08T18:28:25.447Z,64.16
2022-08-08T18:30:52.745Z,65.73
2022-08-08T18:34:10.314Z,65.25
2022-08-08T18:36:22.974Z,65.15
2022-08-08T18:38:55.499Z,68.53
2022-08-08T18:41:51.505Z,69.81
2022-08-08T18:44:12.800Z,71.46
2022-08-08T18:46:55.277Z,74.28
2022-08-08T18:49:40.886Z,74.79
2022-08-08T18:52:23.329Z,77.18
2022-08-08T18:55:00.627Z,78.12
2022-08-08T18:57:42.000Z,81.88
2022-08-08T19:00:21.261Z,84.52
2022-08-08T19:02:55.378Z,85.68
2022-08-08T19:05:32.376Z,86.15
2022-08-08T19:08:10.091Z,89.60
2022-08-08T19:10:37.506Z,90.43
2022-08-08T19:13:10.906Z,88.42
2022-08-08T19:15:48.071Z,88.71
2022-08-08T19:18:32.132Z,88.73
2022-08-08T19:21:06.075Z,89.98
2022-08-08T19:23:52.975Z,91.33
2022-08-08T19:26:30.265Z,91.70
2022-08-08T19:29:00.552Z,95.25
2022-08-08T19:31:31.317Z,95.84
2022-08-08T19:34:04.999Z,96.69
2022-08-08T19:36:51.965Z,99.05
2022-08-08T19:39:19.619Z,100.00
2022-08-08T19:41:49.897Z,99.37
2022-08-08T19:44:43.041Z,96.71
2022-08-08T19:47:04.428Z,97.71
2022-08-08T19:49:37.685Z,97.69
2022-08-08T19:52:06.599Z,96.52
2022-08-08T19:54:33.766Z,96.71
2022-08-08T19:57:04.189Z,97.39
2022-08-08T19:59:34.796Z,98.27
2022-08-08T20:02:04.437Z,97.19
2022-08-08T20:04:35.213Z,100.00
2022-08-08T20:08:27.201Z,100.00
2022-08-08T20:09:56.326Z,100.00
2022-08-08T20:12:32.599Z,100.00
2022-08-08T20:15:14.612Z,100.00
2022-08-08T20:17:46.212Z,100.00
2022-08-08T20:20:16.048Z,100.00
2022-08-08T20:22:52.610Z,100.00
2022-08-08T20:25:21.332Z,100.00
2022-08-08T20:27:50.158Z,100.00
2022-08-08T20:30:53.145Z,100.00
2022-08-08T20:33:20.193Z,100.00
2022-08-08T20:35:56.821Z,100.00
2022-08-08T20:38:31.923Z,100.00
2022-08-08T20:41:00.852Z,100.00
2022-08-08T20:43:43.616Z,100.00
2022-08-08T20:46:14.824Z,100.00
2022-08-08T20:48:41.513Z,100.00
2022-08-08T20:51:08.218Z,100.00
2022-08-08T20:53:59.113Z,100.00
2022-08-08T20:56:35.823Z,100.00
2022-08-08T20:59:10.160Z,100.00
2022-08-08T21:02:06.526Z,100.00
2022-08-08T21:04:27.357Z,100.00
2022-08-08T21:06:55.047Z,100.00
2022-08-08T21:09:21.965Z,100.00
2022-08-08T21:11:51.762Z,100.00
2022-08-08T21:14:33.568Z,100.00
2022-08-08T21:17:05.990Z,100.00
2022-08-08T21:19:45.419Z,100.00
2022-08-08T21:22:13.672Z,100.00
2022-08-08T21:24:41.801Z,100.00
2022-08-08T21:28:06.723Z,100.00
2022-08-08T21:30:10.831Z,100.00
2022-08-08T21:32:45.815Z,100.00
2022-08-08T21:36:14.646Z,100.00
2022-08-08T21:38:08.398Z,100.00
2022-08-08T21:40:38.715Z,100.00
2022-08-08T21:43:21.993Z,100.00
2022-08-08T21:48:04.260Z,100.00
2022-08-08T21:48:44.445Z,100.00
2022-08-08T21:51:11.868Z,100.00
2022-08-08T21:54:31.836Z,100.00
2022-08-08T21:56:32.280Z,100.00
2022-08-08T21:59:05.737Z,100.00
2022-08-08T22:01:40.839Z,100.00
2022-08-08T22:04:10.521Z,100.00
2022-08-08T22:06:40.279Z,100.00
2022-08-08T22:09:09.782Z,100.00
2022-08-08T22:11:59.291Z,100.00
2022-08-08T22:14:26.979Z,100.00
2022-08-08T22:16:56.192Z,100.00
2022-08-08T22:19:24.145Z,100.00
2022-08-08T22:21:52.932Z,100.00
2022-08-08T22:24:28.393Z,100.00
2022-08-08T22:27:01.193Z,100.00
2022-08-08T22:29:57.866Z,100.00
2022-08-08T22:32:18.076Z,100.00
2022-08-08T22:34:50.577Z,100.00
2022-08-08T22:37:48.715Z,100.00
2022-08-08T22:40:07.496Z,100.00
2022-08-08T22:42:38.973Z,100.00
2022-08-08T22:45:12.433Z,100.00
2022-08-08T22:47:41.357Z,100.00
2022-08-08T22:50:26.151Z,100.00
2022-08-08T22:54:31.666Z,100.00
2022-08-08T22:55:57.640Z,100.00
2022-08-08T22:58:27.101Z,100.00
2022-08-08T23:00:55.343Z,100.00
2022-08-08T23:03:22.049Z,100.00
2022-08-08T23:05:49.796Z,100.00
2022-08-08T23:08:18.067Z,100.00
2022-08-08T23:10:52.991Z,100.00
2022-08-08T23:13:22.475Z,100.00
2022-08-08T23:16:41.906Z,100.00
2022-08-08T23:18:40.346Z,100.00
2022-08-08T23:21:07.785Z,100.00
2022-08-08T23:23:48.845Z,100.00
2022-08-08T23:26:21.822Z,100.00
2022-08-08T23:28:48.525Z,100.00
2022-08-08T23:31:15.173Z,100.00
2022-08-08T23:34:18.502Z,100.00
2022-08-08T23:36:29.269Z,100.00
2022-08-08T23:38:55.893Z,100.00
2022-08-08T23:41:25.045Z,100.00
2022-08-08T23:43:54.091Z,100.00
2022-08-08T23:49:06.770Z,100.00
2022-08-08T23:49:15.657Z,100.00
2022-08-08T23:52:04.446Z,100.00
2022-08-08T23:54:41.306Z,100.00
2022-08-08T23:57:25.595Z,100.00
